Home > Products > Valid Products > MTR

000
SAUS45 KRIW 201057
MTRP60
METAR KP60 201056Z AUTO VRB03KT M04/M07 A3001 RMK AO1 SLP181
T10391067





000
SAUS45 KRIW 200957
MTRP60
METAR KP60 200956Z AUTO VRB05KT M04/M07 A3002 RMK AO1 SLP184 P0001
T10391067





000
SAUS45 KRIW 200857
MTRP60
METAR KP60 200856Z AUTO VRB05KT M04/M07 A3002 RMK AO1 SLP184
T10391067 55001





000
SAUS45 KRIW 200757
MTRP60
METAR KP60 200756Z AUTO VRB03KT M04/M06 A3001 RMK AO1 SLP181
T10391061





000
SAUS45 KRIW 200757
MTRP60
METAR KP60 200756Z AUTO VRB03KT M04/M06 A3001 RMK AO1 SLP181
T10391061





000
SAUS45 KRIW 200657
MTRP60
METAR KP60 200656Z AUTO VRB04KT M03/M06 A3001 RMK AO1 SLP181
T10331061 410281056





000
SAUS45 KRIW 200557
MTRP60
METAR KP60 200556Z AUTO 00000KT M04/M06 A3002 RMK AO1 SLP185 60001
T10391056 11033 21039 50002





000
SAUS45 KRIW 200457
MTRP60
METAR KP60 200456Z AUTO VRB04KT M03/M06 A3003 RMK AO1 SLP186
T10331061





000
SAUS45 KRIW 200357
MTRP60
METAR KP60 200356Z AUTO 00000KT M03/M06 A3003 RMK AO1 SLP189
T10331061





000
SAUS45 KRIW 200357
MTRP60
METAR KP60 200356Z AUTO 00000KT M03/M06 A3003 RMK AO1 SLP189
T10331061





000
SAUS45 KRIW 200257
MTRP60
METAR KP60 200256Z AUTO 00000KT M04/M06 A3002 RMK AO1 SLP190 P0001
60001 T10391056 55000





000
SAUS45 KRIW 200157
MTRP60
METAR KP60 200156Z AUTO 00000KT M03/M06 A3001 RMK AO1 SLP184
T10331056





000
SAUS45 KRIW 200157
MTRP60
METAR KP60 200156Z AUTO 00000KT M03/M06 A3001 RMK AO1 SLP184
T10331056





000
SAUS45 KRIW 200057
MTRP60
METAR KP60 200056Z AUTO 00000KT M03/M06 A3002 RMK AO1 SLP187
T10331061





000
SAUS45 KRIW 192357
MTRP60
METAR KP60 192356Z AUTO VRB04KT M03/M06 A3002 RMK AO1 SLP186
T10331061 11028 21033 58003





000
SAUS45 KRIW 192258
MTRP60
METAR KP60 192256Z AUTO 26005KT M03/M06 A3002 RMK AO1 SLP187
T10331061





000
SAUS45 KRIW 192157
MTRP60
METAR KP60 192156Z AUTO VRB05KT M03/M06 A3003 RMK AO1 SLP193
T10331061





000
SAUS45 KRIW 192057
MTRP60
METAR KP60 192056Z AUTO VRB03KT M03/M06 A3003 RMK AO1 SLP191
T10331061 56012





000
SAUS45 KRIW 191957
MTRP60
METAR KP60 191956Z AUTO VRB04KT M03/M07 A3004 RMK AO1 SLP194
T10281067





000
SAUS45 KRIW 191957
MTRP60
METAR KP60 191956Z AUTO VRB04KT M03/M07 A3004 RMK AO1 SLP194
T10281067





000
SAUS45 KRIW 191857
MTRP60
METAR KP60 191856Z AUTO VRB04KT M03/M06 A3005 RMK AO1 SLP200
T10331061





000
SAUS45 KRIW 191757
MTRP60
METAR KP60 191756Z AUTO VRB04KT M03/M06 A3007 RMK AO1 SLP207 60002
T10331061 11028 21050 53000





000
SAUS45 KRIW 191657
MTRP60
METAR KP60 191656Z AUTO VRB03KT M03/M06 A3007 RMK AO1 SLP206
T10331061





000
SAUS45 KRIW 191557
MTRP60
METAR KP60 191556Z AUTO 00000KT M04/M06 A3007 RMK AO1 SLP209 P0001
T10441061





000
SAUS45 KRIW 191458
MTRP60
METAR KP60 191456Z AUTO 00000KT M05/M06 A3007 RMK AO1 SLP214 60001
T10501061 51003





000
SAUS45 KRIW 191358
MTRP60
METAR KP60 191356Z AUTO 00000KT M05/M06 A3006 RMK AO1 SLP210 P0001
T10501061





000
SAUS45 KRIW 191257
MTRP60
METAR KP60 191256Z AUTO VRB04KT M05/M07 A3007 RMK AO1 SLP214
T10501067





000
SAUS45 KRIW 191157
MTRP60
METAR KP60 191156Z AUTO VRB04KT M05/M07 A3006 RMK AO1 SLP209 60001
70001 T10501072 11050 21056 50000





000
SAUS45 KRIW 191057
MTRP60
METAR KP60 191056Z AUTO 27004KT M05/M08 A3007 RMK AO1 SLP207
T10501078





000
SAUS45 KRIW 190957
MTRP60
METAR KP60 190956Z AUTO 00000KT M05/M07 A3007 RMK AO1 SLP208 P0001
T10501072





000
SAUS45 KRIW 190957
MTRP60
METAR KP60 190956Z AUTO 00000KT M05/M07 A3007 RMK AO1 SLP208 P0001
T10501072





000
SAUS45 KRIW 190857
MTRP60
METAR KP60 190856Z AUTO VRB03KT M05/M07 A3006 RMK AO1 SLP206
T10501072 55005





000
SAUS45 KRIW 190757
MTRP60
METAR KP60 190756Z AUTO 00000KT M05/M07 A3006 RMK AO1 SLP204
T10501072





000
SAUS45 KRIW 190657
MTRP60
METAR KP60 190656Z AUTO 27004KT M05/M08 A3006 RMK AO1 SLP205
T10501078 410331083





000
SAUS45 KRIW 190557
MTRP60
METAR KP60 190556Z AUTO 00000KT M05/M08 A3008 RMK AO1 SLP216
T10501078 11050 21056 55001





000
SAUS45 KRIW 190457
MTRP60
METAR KP60 190456Z AUTO 00000KT M05/M08 A3007 RMK AO1 SLP213
T10501078





000
SAUS45 KRIW 190357
MTRP60
METAR KP60 190356Z AUTO VRB03KT M05/M08 A3008 RMK AO1 SLP218
T10501078





000
SAUS45 KRIW 190357
MTRP60
METAR KP60 190356Z AUTO VRB03KT M05/M08 A3008 RMK AO1 SLP218
T10501078





000
SAUS45 KRIW 190257
MTRP60
METAR KP60 190256Z AUTO VRB06KT M05/M09 A3008 RMK AO1 SLP224
T10501089 51006





000
SAUS45 KRIW 190157
MTRP60
METAR KP60 190156Z AUTO 00000KT M05/M09 A3008 RMK AO1 SLP222
T10501089





000
SAUS45 KRIW 190157
MTRP60
METAR KP60 190156Z AUTO 00000KT M05/M09 A3008 RMK AO1 SLP222
T10501089





000
SAUS45 KRIW 190057
MTRP60
METAR KP60 190056Z AUTO VRB06KT M05/M09 A3008 RMK AO1 SLP222
T10501089





000
SAUS45 KRIW 182357
MTRP60
METAR KP60 182356Z AUTO VRB03KT M05/M08 A3006 RMK AO1 SLP212
T10501083 11033 21050 53002





000
SAUS45 KRIW 182257
MTRP60
METAR KP60 182256Z AUTO VRB04KT M04/M08 A3005 RMK AO1 SLP207
T10441078





000
SAUS45 KRIW 182157
MTRP60
METAR KP60 182156Z AUTO 27006KT M04/M08 A3004 RMK AO1 SLP204
T10441078





000
SAUS45 KRIW 182058
MTRP60
METAR KP60 182056Z AUTO VRB05KT M04/M08 A3005 RMK AO1 SLP206
T10441083 56008





000
SAUS45 KRIW 181957
MTRP60
METAR KP60 181956Z AUTO VRB05KT M04/M08 A3005 RMK AO1 SLP210
T10391083





000
SAUS45 KRIW 181858
MTRP60
METAR KP60 181856Z AUTO VRB03KT M04/M08 A3006 RMK AO1 SLP215
T10391083





000
SAUS45 KRIW 181757
MTRP60
METAR KP60 181756Z AUTO VRB04KT M05/M09 A3008 RMK AO1 SLP227
T10501089 11050 21083 51008





000
SAUS45 KRIW 181658
MTRP60
METAR KP60 181656Z AUTO VRB05KT M06/M09 A3007 RMK AO1 SLP225
T10561094





000
SAUS45 KRIW 181557
MTRP60
METAR KP60 181556Z AUTO 00000KT M07/M09 A3007 RMK AO1 SLP226
T10671094





000
SAUS45 KRIW 181458
MTRP60
METAR KP60 181456Z AUTO 00000KT M08/M09 A3005 RMK AO1 SLP220
T10781089 53007





000
SAUS45 KRIW 181357
MTRP60
METAR KP60 181356Z AUTO 00000KT M08/M09 A3004 RMK AO1 SLP213
T10781094





000
SAUS45 KRIW 181357
MTRP60
METAR KP60 181356Z AUTO 00000KT M08/M09 A3004 RMK AO1 SLP213
T10781094





000
SAUS45 KRIW 181257
MTRP60
METAR KP60 181256Z AUTO 00000KT M07/M09 A3003 RMK AO1 SLP208
T10721089





000
SAUS45 KRIW 181257
MTRP60
METAR KP60 181256Z AUTO 00000KT M07/M09 A3003 RMK AO1 SLP208
T10721089





000
SAUS45 KRIW 181157
MTRP60
METAR KP60 181156Z AUTO 00000KT M07/M09 A3002 RMK AO1 SLP202 70002
T10671094 11056 21089 53004





000
SAUS45 KRIW 181157
MTRP60
METAR KP60 181156Z AUTO 00000KT M07/M09 A3002 RMK AO1 SLP202 70002
T10671094 11056 21089 53004





000
SAUS45 KRIW 181057
MTRP60
METAR KP60 181056Z AUTO VRB03KT M06/M09 A3001 RMK AO1 SLP193
T10611094





000
SAUS45 KRIW 181057
MTRP60
METAR KP60 181056Z AUTO VRB03KT M06/M09 A3001 RMK AO1 SLP193
T10611094





000
SAUS45 KRIW 180957
MTRP60
METAR KP60 180956Z AUTO 00000KT M06/M09 A3001 RMK AO1 SLP192
T10611089





000
SAUS45 KRIW 180858
MTRP60
METAR KP60 180856Z AUTO VRB03KT M06/M09 A3001 RMK AO1 SLP190
T10611094 51002





000
SAUS45 KRIW 180858
MTRP60
METAR KP60 180856Z AUTO VRB03KT M06/M09 A3001 RMK AO1 SLP190
T10611094 51002





000
SAUS45 KRIW 180757
MTRP60
METAR KP60 180756Z AUTO 00000KT M07/M09 A3000 RMK AO1 SLP191
T10721089





000
SAUS45 KRIW 180757
MTRP60
METAR KP60 180756Z AUTO 00000KT M07/M09 A3000 RMK AO1 SLP191
T10721089





000
SAUS45 KRIW 180657
MTRP60
METAR KP60 180656Z AUTO 00000KT M08/M10 A3001 RMK AO1 SLP197
T10831100 410331089





000
SAUS45 KRIW 180557
MTRP60
METAR KP60 180556Z AUTO 00000KT M09/M11 A3000 RMK AO1 SLP198
T10891106 11061 21089 50006





000
SAUS45 KRIW 180457
MTRP60
METAR KP60 180456Z AUTO 00000KT M08/M10 A3000 RMK AO1 SLP199
T10831100





000
SAUS45 KRIW 180357
MTRP60
METAR KP60 180356Z AUTO 00000KT M08/M09 A2998 RMK AO1 SLP195
T10781094





000
SAUS45 KRIW 180257
MTRP60
METAR KP60 180256Z AUTO 00000KT M07/M09 A2998 RMK AO1 SLP193
T10721089 53007





000
SAUS45 KRIW 180158
MTRP60
METAR KP60 180156Z AUTO 00000KT M06/M09 A2996 RMK AO1 SLP181
T10611089





000
SAUS45 KRIW 180158
MTRP60
METAR KP60 180156Z AUTO 00000KT M06/M09 A2996 RMK AO1 SLP181
T10611089





000
SAUS45 KRIW 180057
MTRP60
METAR KP60 180056Z AUTO 00000KT M07/M09 A2996 RMK AO1 SLP183
T10671094





000
SAUS45 KRIW 172357
MTRP60
METAR KP60 172356Z AUTO 00000KT M06/M09 A2995 RMK AO1 SLP181
T10611094 11033 21061 53007





000
SAUS45 KRIW 172257
MTRP60
METAR KP60 172256Z AUTO VRB04KT M05/M09 A2994 RMK AO1 SLP174
T10501094





000
SAUS45 KRIW 172157
MTRP60
METAR KP60 172156Z AUTO 00000KT M04/M07 A2993 RMK AO1 SLP165
T10391072





000
SAUS45 KRIW 172157
MTRP60
METAR KP60 172156Z AUTO 00000KT M04/M07 A2993 RMK AO1 SLP165
T10391072





000
SAUS45 KRIW 172057
MTRP60
METAR KP60 172056Z AUTO VRB03KT M04/M08 A2992 RMK AO1 SLP160
T10391078 56011





000
SAUS45 KRIW 171957
MTRP60
METAR KP60 171956Z AUTO M04/M08 A2994 RMK AO1 SLP165 T10391083





000
SAUS45 KRIW 171857
MTRP60
METAR KP60 171856Z AUTO VRB04KT M04/M07 A2995 RMK AO1 SLP170
T10391072





000
SAUS45 KRIW 171757
MTRP60
METAR KP60 171756Z AUTO 00000KT M04/M07 A2996 RMK AO1 SLP178 60002
T10441072 11044 21078 50006





000
SAUS45 KRIW 171657
MTRP60
METAR KP60 171656Z AUTO 00000KT M05/M07 A2997 RMK AO1 SLP179 P0001
T10501067





000
SAUS45 KRIW 171557
MTRP60
METAR KP60 171556Z AUTO 00000KT M07/M08 A2996 RMK AO1 SLP183
T10671078





000
SAUS45 KRIW 171457
MTRP60
METAR KP60 171456Z AUTO 00000KT M07/M09 A2994 RMK AO1 SLP182 60001
T10721089 54000





000
SAUS45 KRIW 171357
MTRP60
METAR KP60 171356Z AUTO 00000KT M07/M08 A2995 RMK AO1 SLP184 P0001
T10671083





000
SAUS45 KRIW 171257
MTRP60
METAR KP60 171256Z AUTO 00000KT M07/M09 A2994 RMK AO1 SLP180
T10721089





000
SAUS45 KRIW 171157
MTRP60
METAR KP60 171156Z AUTO 00000KT M08/M09 A2994 RMK AO1 SLP178 60002
70005 T10781089 11056 21083 58001





    US Dept of Commerce
    National Oceanic and Atmospheric Administration
    National Weather Service
    1325 East West Highway
    Silver Spring, MD 20910
    Page Author: NWS Internet Services Team
Disclaimer
Information Quality
Credits
Glossary
Privacy Policy
Freedom of Information Act (FOIA)
About Us
Career Opportunities